Main page
METAR-TAF:

METAR-TAF

Airports :

Altamira Airport

Altamira, Pará, Brazil

latitude: 03-12S, longitude: 052-12W, elevation: 74 m

Current weather observation

The report was made 6 hours and 17 minutes ago, at 21:00 UTC
Calm wind
Temperature 27°C
Humidity 89%
Pressure 1010 hPa
Visibility 10 km or more
Broken clouds at a height of 1500 ft
Broken clouds at a height of 10000 ft

METAR: SBHT 172100Z 00000KT 9999 BKN015 BKN100 27/25 Q1010

Time: 00:17 (03:17 UTC)


TAF: missing

Weather observations and forecasts of more than 4000 airports (METAR and TAF reports).

The available stations are represented by yellow and red dots on the map.

Hover mouse over dot to see the name of the station.

Then click to see weather observations and forecasts.

To change the map : click on the green buttons with a black cross to zoom in, on the green button with a dash to zoom out, or on the green arrows for adjacent maps.


METAR-TAF: